Latest Weather Observations for Tunnack

IDT60801

Issued at 8:31 am EST Thursday 26 May 2016 (issued every 30 minutes, with the page automatically refreshed every 10 minutes)

About weather observations | Map of weather stations | Latest weather observations for TAS | Other Formats
Station Details ID: 094195 Name: TUNNACK FIRE STATION Lat: -42.45 Lon: 147.46 Height: 461.5 m
Data from the previous 72 hours. | See also: Recent months at Tunnack
Date/Time
EST
Temp
°C
App
Temp
°C
Dew
Point
Rel
Hum
%
Delta-T
°C
Wind Press
QNH
hPa
Press
MSL
hPa
Rain
since 9 am
mm
Dir
 
Spd
km/h
Gust
km/h
Spd
kts
Gust
kts
26/08:30am 6.2 4.3 5.0 92 0.5 WSW 4 7 2 4 1002.5 1003.0 0.0
26/08:00am 7.1 6.2 5.9 92 0.6 CALM 0 0 0 0 1002.3 1002.7 0.0
26/07:30am 7.1 5.0 5.9 92 0.6 ENE 6 7 3 4 1002.2 1002.6 0.0
26/07:00am 7.2 4.6 6.1 93 0.5 WSW 9 13 5 7 1002.1 1002.5 0.0
26/06:30am 7.5 5.9 6.4 93 0.5 W 4 11 2 6 1002.0 1002.4 0.0
26/06:00am 7.7 5.3 7.0 95 0.3 WSW 9 11 5 6 1001.9 1002.3 0.0
26/05:30am 7.8 5.8 7.1 95 0.3 WSW 7 9 4 5 1001.8 1002.2 0.0
26/05:00am 7.9 6.1 7.0 94 0.4 SSE 6 9 3 5 1001.9 1002.3 0.0
26/04:30am 8.3 5.9 7.2 93 0.5 WSW 9 15 5 8 1002.1 1002.5 0.0
26/04:00am 8.3 6.3 7.1 92 0.6 WNW 7 11 4 6 1001.9 1002.3 0.0
26/03:30am 8.5 6.7 7.1 91 0.7 NW 6 9 3 5 1001.6 1002.0 0.0
26/03:00am 8.7 4.3 7.5 92 0.6 NNW 20 26 11 14 1001.6 1002.0 0.0
26/02:30am 8.1 4.2 7.0 93 0.5 N 17 20 9 11 1001.8 1002.2 0.0
26/02:00am 8.3 3.1 7.4 94 0.4 N 24 32 13 17 1001.9 1002.3 0.0
26/01:30am 8.4 3.6 7.3 93 0.5 N 22 32 12 17 1002.0 1002.4 0.0
26/01:00am 8.3 3.9 7.4 94 0.4 NNW 20 28 11 15 1002.3 1002.7 0.0
26/12:30am 8.4 2.9 7.6 95 0.4 N 26 35 14 19 1002.5 1003.0 0.0
26/12:00am 8.2 3.8 7.6 96 0.3 N 20 30 11 16 1002.9 1003.4 0.0
 
Date/Time
EST
Temp
°C
App
Temp
°C
Dew
Point
Rel
Hum
%
Delta-T
°C
Wind Press
QNH
hPa
Press
MSL
hPa
Rain
since 9 am
mm
Dir
 
Spd
km/h
Gust
km/h
Spd
kts
Gust
kts
25/11:30pm 8.2 3.8 7.4 95 0.4 N 20 33 11 18 1003.3 1003.7 0.0
25/11:00pm 7.8 3.5 7.1 95 0.3 N 19 30 10 16 1003.6 1004.0 0.0
25/10:30pm 7.5 3.6 7.1 97 0.2 N 17 22 9 12 1003.8 1004.2 0.0
25/10:00pm 7.1 3.9 6.7 97 0.2 NNE 13 20 7 11 1004.0 1004.4 0.0
25/09:30pm 7.0 3.4 6.6 97 0.2 N 15 26 8 14 1004.3 1004.8 0.0
25/09:00pm 7.0 3.0 6.6 97 0.2 NNE 17 32 9 17 1004.4 1004.9 0.0
25/08:30pm 6.7 2.1 6.3 97 0.2 N 20 28 11 15 1004.4 1004.9 0.0
25/08:00pm 6.8 1.8 6.4 97 0.2 N 22 30 12 16 1004.6 1005.1 0.0
25/07:30pm 6.6 2.1 6.0 96 0.3 N 19 28 10 15 1004.7 1005.2 0.0
25/07:00pm 5.9 1.2 5.2 95 0.3 NNE 19 24 10 13 1005.0 1005.5 0.0
25/06:30pm 6.2 0.6 5.5 95 0.3 N 24 33 13 18 1005.3 1005.8 0.0
25/06:00pm 6.0 0.4 5.3 95 0.3 N 24 32 13 17 1005.4 1005.9 0.0
25/05:30pm 5.6 0.8 4.4 92 0.5 NNE 19 28 10 15 1005.7 1006.1 0.0
25/05:00pm 5.8 1.6 3.6 86 1.0 NNE 15 22 8 12 1005.8 1006.2 0.0
25/04:30pm 5.7 2.1 2.9 82 1.2 NNE 11 17 6 9 1005.8 1006.2 0.0
25/04:00pm 5.5 0.3 2.5 81 1.3 N 19 24 10 13 1006.2 1006.7 0.0
25/03:30pm 6.1 0.9 2.6 78 1.5 N 19 30 10 16 1006.6 1007.1 0.0
25/03:00pm 6.3 2.2 2.2 75 1.7 N 13 19 7 10 1006.6 1007.1 0.0
25/02:30pm 6.8 2.8 2.7 75 1.8 N 13 20 7 11 1007.0 1007.5 0.0
25/02:00pm 7.0 3.7 2.3 72 2.0 NNE 9 11 5 6 1007.0 1007.5 0.0
25/01:30pm 6.5 2.3 1.8 72 2.0 N 13 20 7 11 1007.6 1008.1 0.0
25/01:00pm 5.7 1.6 2.0 77 1.5 N 13 17 7 9 1008.0 1008.5 0.0
25/12:30pm 5.3 0.7 1.4 76 1.6 N 15 20 8 11 1008.3 1008.8 0.0
25/12:00pm 6.6 2.5 2.5 75 1.7 N 13 19 7 10 1008.7 1009.2 0.0
25/11:30am 5.5 2.0 1.4 75 1.7 NE 9 11 5 6 1009.4 1009.9 0.0
25/11:00am 3.5 -0.1 0.7 82 1.1 NNE 9 11 5 6 1010.6 1011.1 0.0
25/10:30am 2.8 -0.2 0.9 87 0.7 ENE 6 9 3 5 1010.8 1011.3 0.0
25/10:00am 1.6 -1.6 0.7 94 0.3 E 7 9 4 5 1011.2 1011.7 0.0
25/09:30am 0.2 -1.9 -0.5 95 0.3 CALM 0 2 0 1 1011.8 1012.4 0.0
25/09:00am -0.1 -3.3 -0.7 96 0.2 NNE 6 7 3 4 1011.9 1012.5 0.0
25/08:30am -1.9 -5.9 -2.6 95 0.2 ESE 9 11 5 6 1012.0 1012.6 0.0
25/08:00am -1.2 -4.2 -1.8 96 0.2 NW 4 9 2 5 1012.0 1012.6 0.0
25/07:30am -1.6 -4.7 -2.3 95 0.2 N 4 7 2 4 1011.5 1012.0 0.0
25/07:00am -1.8 -5.8 -2.5 95 0.2 E 9 11 5 6 1011.3 1011.8 0.0
25/06:30am -2.3 -5.8 -3.0 95 0.1 E 6 11 3 6 1012.0 1012.6 0.0
25/06:00am -1.9 -5.9 -2.6 95 0.2 ESE 9 11 5 6 1012.2 1012.8 0.0
25/05:30am -2.1 -5.8 -2.8 95 0.1 ESE 7 9 4 5 1012.7 1013.2 0.0
25/05:00am -1.9 -4.2 -2.6 95 0.2 CALM 0 0 0 0 1013.0 1013.5 0.0
25/04:30am -1.2 -3.4 -1.8 96 0.2 CALM 0 6 0 3 1012.7 1013.2 0.0
25/04:00am -1.5 -4.5 -2.2 95 0.2 SSW 4 6 2 3 1012.8 1013.3 0.0
25/03:30am -1.1 -3.3 -1.8 95 0.2 CALM 0 0 0 0 1012.6 1013.1 0.0
25/03:00am -1.9 -4.3 -2.9 93 0.3 CALM 0 9 0 5 1012.3 1012.9 0.0
25/02:30am -1.7 -4.8 -2.7 93 0.3 NNE 4 7 2 4 1013.1 1013.6 0.0
25/02:00am -1.3 -3.6 -2.4 92 0.3 CALM 0 0 0 0 1013.2 1013.7 0.0
25/01:30am -1.4 -3.8 -3.1 88 0.5 CALM 0 6 0 3 1013.4 1013.9 0.0
25/01:00am 0.6 -2.9 -1.2 88 0.7 NW 7 9 4 5 1013.9 1014.5 0.0
25/12:30am 1.3 -2.9 -0.9 85 0.8 SW 11 15 6 8 1014.0 1014.6 0.0
25/12:00am 1.9 -2.3 -0.7 83 1.0 WSW 11 17 6 9 1014.5 1015.1 0.0
 
Date/Time
EST
Temp
°C
App
Temp
°C
Dew
Point
Rel
Hum
%
Delta-T
°C
Wind Press
QNH
hPa
Press
MSL
hPa
Rain
since 9 am
mm
Dir
 
Spd
km/h
Gust
km/h
Spd
kts
Gust
kts
24/11:30pm 2.2 -2.4 -0.9 80 1.2 W 13 17 7 9 1014.8 1015.3 0.0
24/11:00pm 2.6 -2.0 -0.8 78 1.3 WSW 13 20 7 11 1014.8 1015.3 0.0
24/10:30pm 2.9 -2.4 -0.5 78 1.3 WSW 17 22 9 12 1015.1 1015.6 0.0
24/10:00pm 1.2 -2.4 -2.2 78 1.3 WNW 7 9 4 5 1015.3 1015.9 0.0
24/09:30pm 2.3 -1.6 -1.7 75 1.5 WSW 9 13 5 7 1015.3 1015.9 0.0
24/09:00pm 1.8 -1.6 -2.0 76 1.4 W 6 11 3 6 1015.1 1015.6 0.0
24/08:30pm 3.0 -1.7 -1.7 71 1.7 WSW 13 17 7 9 1015.1 1015.6 0.0
24/08:00pm 2.8 -1.5 -1.5 73 1.6 W 11 13 6 7 1015.2 1015.7 0.0
24/07:30pm 3.3 -0.6 -1.3 72 1.7 SW 9 13 5 7 1015.2 1015.7 0.0
24/07:00pm 3.6 -0.6 -1.2 71 1.8 SW 11 17 6 9 1015.0 1015.5 0.0
24/06:30pm 4.2 0.0 -1.0 69 2.0 SW 11 17 6 9 1014.7 1015.2 0.0
24/06:00pm 4.7 -0.2 -0.7 68 2.1 SW 15 22 8 12 1014.4 1015.0 0.0
24/05:30pm 4.6 0.1 -0.4 70 1.9 SW 13 19 7 10 1014.2 1014.8 0.0
24/05:00pm 5.1 0.2 -0.3 68 2.1 WSW 15 20 8 11 1014.0 1014.6 0.0
24/04:30pm 5.7 1.3 0.1 67 2.2 WSW 13 20 7 11 1013.9 1014.5 0.0
24/04:00pm 6.4 0.9 0.5 66 2.4 WSW 19 30 10 16 1013.9 1014.5 0.0
24/03:30pm 6.8 1.6 0.3 63 2.6 SW 17 35 9 19 1013.8 1014.4 0.0
24/03:00pm 6.6 0.1 0.3 64 2.5 SSW 24 37 13 20 1013.6 1014.2 0.0
24/02:30pm 6.3 0.7 1.4 71 2.0 SW 20 32 11 17 1013.4 1013.9 0.0
24/02:00pm 7.0 0.8 2.3 72 2.0 SW 24 37 13 20 1013.4 1013.9 0.0
24/01:30pm 6.6 1.7 2.1 73 1.9 SSW 17 24 9 13 1013.3 1013.8 0.0
24/01:00pm 6.3 0.8 2.0 74 1.8 S 20 32 11 17 1013.2 1013.7 0.0
24/12:30pm 7.9 0.1 1.5 64 2.7 SW 32 44 17 24 1012.9 1013.4 0.0
24/12:04pm 7.7 0.5 0.9 62 2.8 SW 28 46 15 25 1013.2 1013.7 0.0
24/12:00pm 7.6 0.8 0.6 61 2.9 SW 26 37 14 20 1013.3 1013.8 0.0
24/11:30am 7.5 1.9 1.4 65 2.5 SW 20 33 11 18 1013.3 1013.8 0.0
24/11:00am 7.6 2.4 2.3 69 2.3 WSW 19 26 10 14 1013.7 1014.3 0.0
24/10:30am 6.8 1.9 1.9 71 2.1 WSW 17 26 9 14 1013.7 1014.3 0.0
24/10:00am 6.6 1.7 1.9 72 2.0 WSW 17 22 9 12 1013.6 1014.2 0.0
24/09:30am 6.0 0.7 2.1 76 1.6 WSW 19 26 10 14 1013.3 1013.8 0.0
24/09:00am 5.7 0.5 2.4 79 1.4 W 19 26 10 14 1013.1 1013.6 4.6
24/08:30am 4.5 -0.4 1.7 82 1.1 W 17 24 9 13 1013.0 1013.5 4.6
24/08:00am 4.0 -0.2 1.5 84 1.0 W 13 20 7 11 1012.7 1013.2 4.6
24/07:30am 3.5 -1.2 1.1 84 1.0 W 15 22 8 12 1012.2 1012.8 4.6
24/07:00am 3.7 -1.7 1.1 83 1.0 W 19 28 10 15 1011.8 1012.4 4.6
24/06:30am 4.1 -1.5 1.5 83 1.0 W 20 32 11 17 1011.6 1012.2 4.6
24/06:00am 4.4 -0.9 1.6 82 1.1 WSW 19 26 10 14 1011.4 1011.9 4.6
24/05:30am 4.5 -1.4 1.5 81 1.2 WSW 22 32 12 17 1011.2 1011.7 4.6
24/05:00am 4.4 -1.2 1.4 81 1.2 WSW 20 33 11 18 1011.1 1011.6 4.6
24/04:30am 4.4 -0.6 1.3 80 1.2 WSW 17 28 9 15 1011.0 1011.5 4.6
24/04:00am 4.6 -0.8 1.5 80 1.3 W 19 32 10 17 1010.7 1011.2 4.6
24/03:30am 4.8 -0.1 1.7 80 1.3 WSW 17 32 9 17 1010.6 1011.1 4.6
24/03:00am 4.7 -0.9 1.4 79 1.3 WSW 20 30 11 16 1010.6 1011.1 4.6
24/02:30am 4.6 -1.3 1.5 80 1.3 WSW 22 35 12 19 1010.2 1010.7 4.6
24/02:00am 4.5 -1.1 1.4 80 1.3 WSW 20 32 11 17 1009.9 1010.5 4.6
24/01:30am 4.8 -0.6 1.3 78 1.4 SW 19 26 10 14 1010.2 1010.7 4.6
24/01:00am 4.8 -1.1 1.5 79 1.3 WSW 22 35 12 19 1010.5 1011.0 4.6
24/12:30am 5.0 -0.9 1.5 78 1.4 WSW 22 35 12 19 1010.5 1011.0 4.6
24/12:00am 5.0 -0.5 0.8 74 1.7 WSW 19 28 10 15 1010.6 1011.1 4.6
 
Date/Time
EST
Temp
°C
App
Temp
°C
Dew
Point
Rel
Hum
%
Delta-T
°C
Wind Press
QNH
hPa
Press
MSL
hPa
Rain
since 9 am
mm
Dir
 
Spd
km/h
Gust
km/h
Spd
kts
Gust
kts
23/11:30pm 4.9 -0.2 0.5 73 1.7 SW 17 26 9 14 1010.5 1011.0 4.6
23/11:00pm 4.9 -2.3 0.5 73 1.8 SW 28 41 15 22 1010.0 1010.6 4.6
23/10:30pm 5.0 -1.5 0.4 72 1.8 WSW 24 35 13 19 1009.7 1010.2 4.6
23/10:00pm 5.0 -2.2 0.6 73 1.8 WSW 28 41 15 22 1009.5 1010.0 4.6
23/09:30pm 4.7 -2.9 0.7 75 1.6 WSW 30 50 16 27 1009.3 1009.8 4.6
23/09:01pm 4.9 -2.3 0.9 75 1.6 WSW 28 46 15 25 1008.9 1009.4 4.6
23/09:00pm 4.8 -2.0 0.9 76 1.6 WSW 26 39 14 21 1009.0 1009.5 4.6
23/08:30pm 5.0 -3.1 0.8 74 1.7 WSW 33 54 18 29 1008.6 1009.1 4.6
23/08:03pm 4.9 -2.1 1.7 80 1.3 WSW 28 46 15 25 1008.5 1009.0 4.6
23/08:00pm 4.9 -1.7 1.9 81 1.2 WSW 26 39 14 21 1008.5 1009.0 4.6
23/07:30pm 4.8 -2.5 2.2 83 1.1 WSW 30 48 16 26 1008.0 1008.5 4.6
23/07:00pm 5.1 -2.7 1.9 80 1.3 WSW 32 50 17 27 1007.5 1008.0 4.6
23/06:31pm 5.1 -1.9 1.9 80 1.3 WSW 28 46 15 25 1007.2 1007.7 4.6
23/06:30pm 5.1 -2.3 1.9 80 1.3 WSW 30 46 16 25 1007.2 1007.7 4.6
23/06:00pm 5.3 -2.1 2.0 79 1.4 WSW 30 48 16 26 1006.5 1007.0 4.6
23/05:32pm 5.4 -1.6 2.2 80 1.3 WSW 28 46 15 25 1006.3 1006.8 4.6
23/05:30pm 5.4 -1.6 2.2 80 1.3 WSW 28 44 15 24 1006.2 1006.7 4.6
23/05:00pm 5.4 -1.1 2.6 82 1.2 WSW 26 41 14 22 1005.8 1006.2 4.4
23/04:32pm 5.6 -1.3 2.8 82 1.2 WSW 28 48 15 26 1005.1 1005.6 4.4
23/04:30pm 5.7 -0.8 2.9 82 1.2 WSW 26 41 14 22 1005.2 1005.7 4.4
23/04:02pm 5.8 -1.0 3.1 83 1.2 W 28 46 15 25 1004.7 1005.2 4.4
23/04:00pm 5.9 -1.3 3.2 83 1.2 WSW 30 44 16 24 1004.7 1005.2 4.4
23/03:48pm 6.2 -0.5 3.5 83 1.2 W 28 46 15 25 1004.5 1005.0 4.4
23/03:30pm 6.4 -0.3 3.7 83 1.2 WSW 28 44 15 24 1004.5 1005.0 4.4
23/03:08pm 6.8 -0.2 4.1 83 1.2 W 30 48 16 26 1004.1 1004.5 4.4
23/03:00pm 6.8 -0.8 3.9 82 1.3 W 33 48 18 26 1004.0 1004.4 4.4
23/02:34pm 7.1 0.5 4.2 82 1.3 W 28 46 15 25 1003.8 1004.2 4.4
23/02:30pm 7.2 0.6 4.3 82 1.3 W 28 41 15 22 1003.7 1004.1 4.4
23/02:18pm 7.1 0.6 4.6 84 1.1 W 28 50 15 27 1003.5 1003.9 4.4
23/02:00pm 7.1 1.8 4.8 85 1.0 WSW 22 33 12 18 1003.1 1003.6 4.4
23/01:30pm 7.1 2.2 5.3 88 0.8 WSW 20 30 11 16 1003.0 1003.5 4.4
23/01:00pm 7.1 2.3 5.7 91 0.6 W 20 32 11 17 1003.3 1003.7 4.4
23/12:30pm 7.3 2.6 6.1 92 0.6 W 20 30 11 16 1003.1 1003.6 4.2
23/12:00pm 7.5 3.4 6.4 93 0.5 W 17 32 9 17 1002.8 1003.3 3.8
23/11:30am 7.6 4.4 6.7 94 0.4 WSW 13 19 7 10 1003.0 1003.5 3.4
23/11:00am 7.7 4.4 6.6 93 0.5 W 13 17 7 9 1003.1 1003.6 2.4
23/10:30am 8.0 6.2 7.1 94 0.4 WNW 6 9 3 5 1003.3 1003.7 1.4
23/10:00am 8.1 6.3 7.2 94 0.4 NNE 6 9 3 5 1003.1 1003.6 0.4
23/09:30am 8.0 7.3 7.1 94 0.4 CALM 0 0 0 0 1003.3 1003.7 0.0
23/09:00am 7.8 7.1 6.9 94 0.4 CALM 0 6 0 3 1003.0 1003.5 6.8

Other Formats:

Comma delimited format used in spreadsheet applications
http://www.bom.gov.au/fwo/IDT60801/IDT60801.94960.axf

JavaScript Object Notation format (JSON) in row-major order
http://www.bom.gov.au/fwo/IDT60801/IDT60801.94960.json